createdAt,value
2019-02-11T00:00:50.242Z,86.3
2019-02-11T00:02:50.430Z,86.0
2019-02-11T00:04:49.821Z,86.3
2019-02-11T00:06:49.982Z,86.3
2019-02-11T00:08:50.164Z,86.1
2019-02-11T00:10:50.304Z,85.5
2019-02-11T00:12:50.410Z,85.5
2019-02-11T00:14:50.619Z,85.3
2019-02-11T00:16:50.742Z,85.6
2019-02-11T00:18:49.932Z,85.4
2019-02-11T00:20:49.989Z,85.3
2019-02-11T00:22:50.007Z,85.8
2019-02-11T00:24:49.944Z,86.6
2019-02-11T00:26:50.246Z,86.4
2019-02-11T00:28:50.251Z,86.0
2019-02-11T00:30:50.237Z,85.9
2019-02-11T00:32:50.479Z,86.0
2019-02-11T00:34:49.787Z,86.1
2019-02-11T00:36:49.957Z,85.8
2019-02-11T00:38:50.067Z,85.9
2019-02-11T00:40:50.082Z,85.2
2019-02-11T00:42:50.064Z,85.1
2019-02-11T00:44:50.140Z,85.1
2019-02-11T00:46:50.277Z,84.5
2019-02-11T00:48:50.215Z,85.2
2019-02-11T00:50:50.150Z,84.7
2019-02-11T00:52:50.164Z,84.8
2019-02-11T00:54:50.188Z,85.0
2019-02-11T00:56:50.289Z,85.5
2019-02-11T00:58:50.413Z,86.4
2019-02-11T01:00:50.439Z,86.9
2019-02-11T01:02:50.490Z,87.0
2019-02-11T01:04:49.844Z,88.2
2019-02-11T01:06:50.162Z,88.3
2019-02-11T01:08:50.269Z,88.4
2019-02-11T01:10:50.375Z,88.5
2019-02-11T01:12:50.575Z,89.1
2019-02-11T01:14:50.606Z,89.8
2019-02-11T01:16:49.866Z,91.1
2019-02-11T01:18:49.868Z,91.5
2019-02-11T01:20:49.973Z,90.9
2019-02-11T01:22:50.160Z,90.8
2019-02-11T01:24:50.305Z,90.8
2019-02-11T01:26:50.349Z,90.6
2019-02-11T01:28:50.381Z,89.9
2019-02-11T01:30:50.337Z,89.9
2019-02-11T01:32:50.317Z,90.3
2019-02-11T01:34:49.792Z,88.7
2019-02-11T01:36:50.001Z,89.0
2019-02-11T01:38:50.064Z,89.2
2019-02-11T01:40:50.106Z,88.8
2019-02-11T01:42:50.187Z,89.6
2019-02-11T01:44:50.290Z,89.9
2019-02-11T01:46:50.414Z,89.2
2019-02-11T01:48:50.380Z,89.1
2019-02-11T01:50:50.422Z,89.6
2019-02-11T01:52:50.492Z,89.8
2019-02-11T01:54:50.647Z,89.4
2019-02-11T01:56:50.030Z,89.6
2019-02-11T01:58:50.008Z,89.4
2019-02-11T02:00:50.166Z,89.4
2019-02-11T02:02:50.159Z,89.2
2019-02-11T02:04:50.636Z,88.9
2019-02-11T02:06:50.751Z,88.6
2019-02-11T02:08:49.836Z,88.4
2019-02-11T02:10:49.903Z,88.7
2019-02-11T02:12:50.164Z,88.0
2019-02-11T02:14:50.239Z,88.3
2019-02-11T02:16:50.469Z,88.6
2019-02-11T02:18:50.628Z,88.4
2019-02-11T02:20:50.610Z,88.6
2019-02-11T02:22:49.839Z,88.6
2019-02-11T02:24:49.982Z,89.4
2019-02-11T02:26:50.333Z,89.7
2019-02-11T02:28:50.346Z,90.0
2019-02-11T02:30:50.516Z,90.8
2019-02-11T02:32:50.688Z,90.8
2019-02-11T02:34:50.084Z,92.0
2019-02-11T02:36:50.245Z,92.1
2019-02-11T02:38:50.388Z,92.9
2019-02-11T02:40:50.463Z,93.5
2019-02-11T02:42:50.558Z,94.2
2019-02-11T02:44:50.492Z,94.8
2019-02-11T02:46:50.688Z,95.4
2019-02-11T02:48:49.842Z,95.9
2019-02-11T02:50:49.867Z,96.8
2019-02-11T02:52:49.899Z,96.7
2019-02-11T02:54:49.943Z,97.5
2019-02-11T02:56:50.342Z,98.3
2019-02-11T02:58:50.376Z,97.9
2019-02-11T03:00:50.330Z,98.7
2019-02-11T03:02:50.445Z,98.9
2019-02-11T03:04:50.000Z,99.4
2019-02-11T03:06:50.234Z,100.0
2019-02-11T03:08:50.364Z,100.0
2019-02-11T03:10:50.354Z,100.0
2019-02-11T03:12:50.461Z,100.0
2019-02-11T03:14:50.492Z,100.0
2019-02-11T03:16:50.657Z,100.0
2019-02-11T03:18:50.693Z,100.0
2019-02-11T03:20:49.923Z,100.0
2019-02-11T03:22:50.203Z,100.0
2019-02-11T03:24:50.267Z,100.0
2019-02-11T03:26:50.375Z,100.0
2019-02-11T03:28:50.508Z,100.0
2019-02-11T03:30:50.748Z,100.0
2019-02-11T03:32:50.821Z,100.0
2019-02-11T03:34:50.391Z,100.0
2019-02-11T03:36:50.566Z,100.0
2019-02-11T03:38:50.608Z,100.0
2019-02-11T03:40:50.634Z,100.0
2019-02-11T03:42:50.687Z,100.0
2019-02-11T03:44:50.764Z,100.0
2019-02-11T03:46:50.048Z,100.0
2019-02-11T03:48:50.108Z,100.0
2019-02-11T03:50:50.171Z,100.0
2019-02-11T03:52:50.250Z,100.0
2019-02-11T03:54:50.276Z,100.0
2019-02-11T03:56:50.471Z,100.0
2019-02-11T03:58:50.470Z,100.0
2019-02-11T04:00:50.576Z,100.0
2019-02-11T04:02:49.856Z,100.0
2019-02-11T04:04:50.242Z,100.0
2019-02-11T04:06:50.393Z,100.0
2019-02-11T04:08:50.402Z,100.0
2019-02-11T04:10:50.522Z,100.0
2019-02-11T04:12:50.531Z,100.0
2019-02-11T04:14:50.507Z,100.0
2019-02-11T04:16:50.622Z,100.0
2019-02-11T04:18:50.752Z,100.0
2019-02-11T04:20:49.833Z,100.0
2019-02-11T04:22:49.810Z,100.0
2019-02-11T04:24:49.837Z,100.0
2019-02-11T04:26:50.088Z,100.0
2019-02-11T04:28:50.084Z,100.0
2019-02-11T04:30:50.099Z,100.0
2019-02-11T04:32:50.137Z,100.0
2019-02-11T04:34:50.603Z,100.0
2019-02-11T04:36:49.792Z,100.0
2019-02-11T04:38:49.829Z,100.0
2019-02-11T04:40:49.921Z,100.0
2019-02-11T04:42:50.116Z,100.0
2019-02-11T04:44:50.107Z,100.0
2019-02-11T04:46:50.236Z,100.0
2019-02-11T04:48:50.335Z,100.0
2019-02-11T04:50:50.315Z,100.0
2019-02-11T04:52:50.370Z,100.0
2019-02-11T04:54:50.315Z,100.0
2019-02-11T04:56:50.449Z,100.0
2019-02-11T04:58:50.489Z,100.0
2019-02-11T05:00:50.460Z,100.0
2019-02-11T05:02:50.623Z,100.0
2019-02-11T05:04:50.053Z,100.0
2019-02-11T05:06:50.239Z,100.0
2019-02-11T05:08:50.243Z,100.0
2019-02-11T05:10:50.239Z,100.0
2019-02-11T05:12:50.246Z,100.0
2019-02-11T05:14:50.293Z,100.0
2019-02-11T05:16:50.341Z,100.0
2019-02-11T05:18:50.303Z,100.0
2019-02-11T05:20:50.427Z,100.0
2019-02-11T05:22:50.436Z,100.0
2019-02-11T05:24:50.472Z,100.0
2019-02-11T05:26:50.181Z,100.0
2019-02-11T05:28:50.227Z,100.0
2019-02-11T05:30:50.215Z,100.0
2019-02-11T05:32:50.346Z,100.0
2019-02-11T05:34:49.790Z,100.0
2019-02-11T05:36:49.901Z,100.0
2019-02-11T05:38:49.977Z,100.0
2019-02-11T05:40:50.101Z,100.0
2019-02-11T05:42:50.025Z,100.0
2019-02-11T05:44:54.758Z,100.0
2019-02-11T05:46:50.023Z,100.0
2019-02-11T05:48:50.093Z,100.0
2019-02-11T05:50:50.163Z,100.0
2019-02-11T05:52:50.154Z,100.0
2019-02-11T05:54:50.153Z,100.0
2019-02-11T05:56:50.290Z,100.0
2019-02-11T05:58:50.259Z,100.0
2019-02-11T06:00:50.308Z,100.0
2019-02-11T06:02:50.314Z,100.0
2019-02-11T06:04:49.887Z,100.0
2019-02-11T06:06:50.085Z,100.0
2019-02-11T06:08:50.259Z,100.0
2019-02-11T06:10:50.228Z,100.0
2019-02-11T06:12:50.337Z,100.0
2019-02-11T06:14:50.368Z,100.0
2019-02-11T06:16:50.481Z,100.0
2019-02-11T06:18:50.639Z,100.0
2019-02-11T06:20:50.735Z,100.0
2019-02-11T06:22:49.886Z,100.0
2019-02-11T06:24:49.951Z,100.0
2019-02-11T06:26:50.086Z,100.0
2019-02-11T06:28:50.236Z,100.0
2019-02-11T06:30:50.285Z,100.0
2019-02-11T06:32:50.411Z,100.0
2019-02-11T06:34:50.078Z,100.0
2019-02-11T06:36:49.959Z,100.0
2019-02-11T06:38:50.015Z,100.0
2019-02-11T06:40:50.172Z,100.0
2019-02-11T06:42:50.349Z,100.0
2019-02-11T06:44:50.446Z,100.0
2019-02-11T06:46:50.662Z,100.0
2019-02-11T06:48:50.632Z,100.0
2019-02-11T06:50:50.698Z,100.0
2019-02-11T06:52:49.796Z,100.0
2019-02-11T06:54:49.928Z,100.0
2019-02-11T06:56:50.089Z,100.0
2019-02-11T06:58:50.054Z,100.0
2019-02-11T07:00:50.118Z,100.0
2019-02-11T07:02:50.153Z,100.0
2019-02-11T07:04:50.511Z,100.0
2019-02-11T07:06:50.753Z,100.0
2019-02-11T07:08:50.685Z,100.0
2019-02-11T07:10:56.305Z,100.0
2019-02-11T07:12:50.317Z,100.0
2019-02-11T07:14:50.323Z,100.0
2019-02-11T07:16:50.391Z,100.0
2019-02-11T07:18:50.543Z,100.0
2019-02-11T07:20:50.580Z,100.0
2019-02-11T07:22:50.550Z,100.0
2019-02-11T07:24:50.456Z,100.0
2019-02-11T07:26:50.598Z,100.0
2019-02-11T07:28:50.648Z,100.0
2019-02-11T07:30:50.614Z,100.0
2019-02-11T07:32:50.698Z,100.0
2019-02-11T07:34:50.315Z,100.0
2019-02-11T07:36:50.456Z,100.0
2019-02-11T07:38:50.407Z,100.0
2019-02-11T07:40:50.322Z,100.0
2019-02-11T07:42:50.370Z,100.0
2019-02-11T07:44:50.684Z,100.0
2019-02-11T07:46:49.786Z,100.0
2019-02-11T07:48:49.807Z,100.0
2019-02-11T07:50:49.813Z,100.0
2019-02-11T07:52:49.910Z,100.0
2019-02-11T07:54:49.905Z,100.0
2019-02-11T07:56:50.156Z,100.0
2019-02-11T07:58:50.305Z,100.0
2019-02-11T08:00:50.356Z,100.0
2019-02-11T08:02:50.535Z,100.0
2019-02-11T08:04:50.002Z,100.0
2019-02-11T08:06:50.087Z,100.0
2019-02-11T08:08:50.083Z,100.0
2019-02-11T08:10:50.115Z,100.0
2019-02-11T08:12:50.088Z,100.0
2019-02-11T08:14:50.065Z,100.0
2019-02-11T08:16:50.259Z,100.0
2019-02-11T08:18:50.267Z,100.0
2019-02-11T08:20:50.310Z,100.0
2019-02-11T08:22:50.353Z,100.0
2019-02-11T08:24:50.421Z,100.0
2019-02-11T08:26:50.529Z,100.0
2019-02-11T08:28:50.495Z,100.0
2019-02-11T08:30:50.534Z,100.0
2019-02-11T08:32:50.602Z,100.0
2019-02-11T08:34:49.987Z,100.0
2019-02-11T08:36:50.109Z,100.0
2019-02-11T08:38:50.156Z,100.0
2019-02-11T08:40:50.204Z,100.0
2019-02-11T08:42:50.227Z,100.0
2019-02-11T08:44:50.165Z,100.0
2019-02-11T08:46:50.361Z,100.0
2019-02-11T08:48:50.602Z,100.0
2019-02-11T08:50:50.621Z,100.0
2019-02-11T08:52:50.607Z,100.0
2019-02-11T08:54:50.537Z,100.0
2019-02-11T08:56:50.718Z,100.0
2019-02-11T08:58:50.763Z,100.0
2019-02-11T09:00:49.878Z,100.0
2019-02-11T09:02:49.995Z,100.0
2019-02-11T09:04:50.374Z,100.0
2019-02-11T09:06:50.436Z,100.0
2019-02-11T09:08:50.442Z,99.6
2019-02-11T09:10:50.459Z,99.5
2019-02-11T09:12:50.518Z,99.7
2019-02-11T09:14:50.519Z,99.4
2019-02-11T09:16:50.682Z,99.8
2019-02-11T09:18:50.701Z,99.7
2019-02-11T09:20:50.753Z,99.6
2019-02-11T09:22:49.905Z,99.3
2019-02-11T09:24:49.847Z,99.4
2019-02-11T09:26:50.015Z,98.8
2019-02-11T09:28:50.022Z,98.4
2019-02-11T09:30:50.145Z,98.8
2019-02-11T09:32:50.172Z,98.3
2019-02-11T09:34:50.756Z,98.3
2019-02-11T09:36:49.967Z,97.7
2019-02-11T09:38:49.937Z,97.3
2019-02-11T09:40:49.960Z,97.6
2019-02-11T09:42:50.000Z,96.7
2019-02-11T09:44:50.047Z,96.5
2019-02-11T09:46:50.057Z,96.5
2019-02-11T09:48:50.012Z,95.6
2019-02-11T09:50:50.041Z,95.5
2019-02-11T09:52:51.202Z,95.5
2019-02-11T09:54:50.199Z,95.8
2019-02-11T09:56:50.278Z,95.3
2019-02-11T09:58:50.258Z,94.7
2019-02-11T10:00:50.225Z,95.4
2019-02-11T10:02:50.231Z,95.2
2019-02-11T10:04:50.509Z,94.5
2019-02-11T10:06:50.568Z,94.4
2019-02-11T10:08:50.548Z,94.8
2019-02-11T10:10:50.509Z,93.9
2019-02-11T10:12:50.569Z,93.9
2019-02-11T10:14:50.803Z,90.1
2019-02-11T10:16:50.089Z,89.1
2019-02-11T10:18:50.222Z,88.4
2019-02-11T10:20:50.501Z,88.4
2019-02-11T10:22:50.501Z,88.1
2019-02-11T10:24:50.567Z,87.6
2019-02-11T10:26:50.708Z,88.2
2019-02-11T10:28:49.813Z,88.5
2019-02-11T10:30:49.921Z,88.9
2019-02-11T10:32:49.919Z,88.8
2019-02-11T10:34:50.322Z,88.8
2019-02-11T10:36:50.432Z,87.7
2019-02-11T10:38:50.521Z,86.5
2019-02-11T10:40:50.478Z,86.7
2019-02-11T10:42:50.581Z,86.1
2019-02-11T10:44:50.591Z,86.1
2019-02-11T10:46:49.782Z,85.4
2019-02-11T10:48:50.767Z,85.9
2019-02-11T10:50:50.128Z,85.9
2019-02-11T10:52:50.330Z,85.5
2019-02-11T10:54:50.499Z,85.6
2019-02-11T10:56:50.750Z,84.8
2019-02-11T10:58:50.918Z,84.6
2019-02-11T11:00:50.209Z,84.8
2019-02-11T11:02:50.161Z,84.9
2019-02-11T11:04:50.605Z,84.5
2019-02-11T11:06:50.689Z,83.9
2019-02-11T11:08:49.806Z,84.9
2019-02-11T11:10:49.910Z,86.1
2019-02-11T11:12:50.032Z,87.1
2019-02-11T11:14:49.945Z,88.9
2019-02-11T11:16:50.032Z,90.8
2019-02-11T11:18:49.988Z,92.1
2019-02-11T11:20:49.974Z,91.3
2019-02-11T11:22:49.933Z,92.5
2019-02-11T11:24:49.964Z,93.4
2019-02-11T11:26:50.387Z,93.0
2019-02-11T11:28:50.504Z,92.7
2019-02-11T11:30:50.609Z,91.4
2019-02-11T11:32:50.605Z,91.1
2019-02-11T11:34:50.160Z,90.4
2019-02-11T11:36:50.485Z,88.4
2019-02-11T11:38:50.541Z,85.5
2019-02-11T11:40:50.731Z,82.4
2019-02-11T11:42:50.934Z,82.1
2019-02-11T11:44:50.223Z,83.7
2019-02-11T11:46:50.480Z,82.7
2019-02-11T11:48:50.592Z,82.8
2019-02-11T11:50:50.838Z,81.5
2019-02-11T11:52:49.988Z,81.8
2019-02-11T11:54:50.129Z,82.3
2019-02-11T11:56:50.421Z,81.4
2019-02-11T11:58:50.695Z,80.0
2019-02-11T12:00:50.136Z,78.8
2019-02-11T12:03:06.457Z,79.0
2019-02-11T12:04:50.458Z,79.1
2019-02-11T12:06:50.655Z,78.3
2019-02-11T12:08:50.759Z,78.6
2019-02-11T12:10:51.082Z,79.2
2019-02-11T12:12:50.453Z,79.2
2019-02-11T12:14:50.789Z,78.8
2019-02-11T12:17:04.008Z,77.0
2019-02-11T12:18:50.432Z,78.6
2019-02-11T12:20:50.632Z,79.5
2019-02-11T12:22:50.741Z,79.7
2019-02-11T12:24:49.869Z,79.9
2019-02-11T12:26:50.069Z,79.5
2019-02-11T12:28:50.169Z,80.2
2019-02-11T12:30:54.279Z,79.9
2019-02-11T12:32:56.332Z,80.0
2019-02-11T12:34:49.955Z,79.7
2019-02-11T12:36:50.169Z,79.8
2019-02-11T12:38:50.483Z,79.9
2019-02-11T12:40:50.760Z,80.3
2019-02-11T12:42:54.854Z,79.9
2019-02-11T12:44:49.917Z,79.3
2019-02-11T12:46:50.656Z,79.4
2019-02-11T12:48:50.767Z,79.7
2019-02-11T12:50:49.813Z,79.6
2019-02-11T12:52:49.928Z,79.7
2019-02-11T12:54:50.059Z,79.3
2019-02-11T12:56:50.286Z,79.5
2019-02-11T12:58:50.279Z,78.9
2019-02-11T13:00:50.414Z,79.5
2019-02-11T13:02:50.575Z,78.9
2019-02-11T13:04:50.034Z,78.5
2019-02-11T13:06:50.251Z,78.7
2019-02-11T13:08:50.323Z,76.8
2019-02-11T13:10:50.403Z,75.4
2019-02-11T13:12:50.594Z,75.2
2019-02-11T13:14:50.543Z,74.9
2019-02-11T13:16:50.830Z,75.2
2019-02-11T13:18:49.873Z,75.4
2019-02-11T13:20:50.462Z,75.5
2019-02-11T13:22:50.447Z,75.3
2019-02-11T13:24:50.844Z,75.6
2019-02-11T13:26:50.654Z,75.2
2019-02-11T13:28:50.167Z,75.3
2019-02-11T13:30:50.517Z,75.0
2019-02-11T13:32:50.834Z,75.7
2019-02-11T13:34:50.571Z,76.1
2019-02-11T13:36:49.996Z,76.5
2019-02-11T13:38:50.197Z,76.7
2019-02-11T13:40:50.442Z,77.5
2019-02-11T13:42:50.676Z,77.9
2019-02-11T13:44:50.042Z,76.9
2019-02-11T13:46:50.413Z,76.8
2019-02-11T13:48:50.595Z,76.7
2019-02-11T13:50:49.857Z,76.7
2019-02-11T13:52:50.262Z,76.7
2019-02-11T13:54:50.534Z,77.7
2019-02-11T13:56:50.285Z,77.3
2019-02-11T13:58:53.000Z,77.3
2019-02-11T14:00:51.485Z,77.0
2019-02-11T14:02:50.863Z,76.4
2019-02-11T14:04:50.727Z,76.5
2019-02-11T14:06:50.254Z,76.3
2019-02-11T14:08:50.584Z,76.6
2019-02-11T14:10:50.000Z,75.2
2019-02-11T14:12:50.499Z,75.0
2019-02-11T14:14:50.041Z,76.3
2019-02-11T14:16:50.609Z,75.2
2019-02-11T14:18:50.268Z,75.3
2019-02-11T14:20:51.361Z,75.3
2019-02-11T14:22:50.653Z,75.6
2019-02-11T14:24:49.977Z,75.8
2019-02-11T14:26:50.446Z,74.8
2019-02-11T14:28:50.420Z,74.4
2019-02-11T14:30:50.731Z,74.8
2019-02-11T14:32:50.130Z,75.1
2019-02-11T14:34:49.982Z,73.7
2019-02-11T14:36:50.353Z,73.1
2019-02-11T14:38:50.685Z,73.4
2019-02-11T14:40:50.113Z,73.4
2019-02-11T14:42:50.442Z,72.7
2019-02-11T14:44:50.704Z,72.8
2019-02-11T14:46:50.180Z,73.0
2019-02-11T14:48:50.498Z,73.3
2019-02-11T14:50:49.788Z,73.3
2019-02-11T14:52:49.970Z,74.1
2019-02-11T14:54:50.225Z,74.1
2019-02-11T14:56:50.616Z,75.1
2019-02-11T14:58:50.051Z,75.0
2019-02-11T15:00:50.594Z,75.0
2019-02-11T15:02:50.778Z,75.0
2019-02-11T15:04:50.842Z,74.7
2019-02-11T15:06:50.625Z,74.3
2019-02-11T15:08:49.861Z,75.4
2019-02-11T15:10:49.879Z,74.1
2019-02-11T15:12:50.246Z,73.8
2019-02-11T15:14:50.299Z,73.8
2019-02-11T15:16:50.674Z,73.8
2019-02-11T15:18:50.627Z,73.8
2019-02-11T15:20:50.759Z,73.1
2019-02-11T15:22:49.938Z,73.0
2019-02-11T15:24:49.929Z,73.6
2019-02-11T15:26:50.375Z,73.2
2019-02-11T15:28:50.443Z,74.3
2019-02-11T15:30:50.656Z,73.4
2019-02-11T15:32:50.654Z,73.6
2019-02-11T15:34:50.806Z,72.9
2019-02-11T15:36:50.140Z,72.6
2019-02-11T15:38:50.151Z,72.6
2019-02-11T15:40:50.170Z,71.5
2019-02-11T15:42:50.140Z,72.4
2019-02-11T15:44:50.243Z,71.9
2019-02-11T15:46:50.370Z,71.3
2019-02-11T15:48:50.367Z,71.6
2019-02-11T15:50:50.404Z,71.6
2019-02-11T15:52:50.386Z,71.4
2019-02-11T15:54:50.459Z,71.9
2019-02-11T15:56:50.434Z,72.5
2019-02-11T15:58:50.418Z,72.7
2019-02-11T16:00:50.463Z,72.8
2019-02-11T16:02:52.614Z,72.8
2019-02-11T16:04:50.017Z,72.9
2019-02-11T16:06:50.196Z,72.9
2019-02-11T16:08:50.089Z,73.5
2019-02-11T16:10:49.987Z,73.0
2019-02-11T16:12:50.123Z,73.2
2019-02-11T16:14:50.176Z,72.5
2019-02-11T16:16:50.306Z,72.8
2019-02-11T16:18:52.403Z,72.5
2019-02-11T16:20:50.355Z,72.7
2019-02-11T16:22:50.313Z,72.7
2019-02-11T16:24:50.358Z,72.8
2019-02-11T16:26:50.474Z,73.4
2019-02-11T16:28:50.513Z,73.1
2019-02-11T16:30:50.531Z,73.1
2019-02-11T16:32:50.582Z,72.9
2019-02-11T16:34:49.947Z,73.0
2019-02-11T16:36:50.011Z,73.4
2019-02-11T16:38:50.027Z,73.7
2019-02-11T16:40:50.031Z,73.4
2019-02-11T16:42:50.113Z,73.8
2019-02-11T16:44:50.084Z,73.7
2019-02-11T16:46:50.216Z,73.4
2019-02-11T16:48:50.203Z,73.6
2019-02-11T16:50:50.140Z,74.4
2019-02-11T16:52:50.138Z,73.8
2019-02-11T16:54:50.189Z,73.8
2019-02-11T16:56:50.359Z,73.9
2019-02-11T16:58:50.253Z,74.2
2019-02-11T17:00:50.679Z,74.6
2019-02-11T17:02:50.750Z,74.6
2019-02-11T17:04:50.057Z,75.0
2019-02-11T17:06:50.142Z,75.6
2019-02-11T17:08:50.171Z,75.8
2019-02-11T17:10:50.175Z,76.1
2019-02-11T17:12:50.210Z,75.9
2019-02-11T17:14:50.148Z,75.7
2019-02-11T17:16:50.355Z,76.0
2019-02-11T17:18:50.448Z,75.8
2019-02-11T17:20:50.440Z,76.2
2019-02-11T17:22:50.420Z,76.0
2019-02-11T17:24:50.345Z,75.9
2019-02-11T17:26:50.410Z,75.7
2019-02-11T17:28:50.414Z,75.8
2019-02-11T17:30:50.429Z,76.3
2019-02-11T17:32:50.457Z,75.8
2019-02-11T17:34:49.954Z,76.0
2019-02-11T17:36:50.123Z,76.0
2019-02-11T17:38:50.084Z,76.2
2019-02-11T17:40:50.118Z,76.2
2019-02-11T17:42:50.185Z,77.4
2019-02-11T17:44:50.182Z,76.7
2019-02-11T17:46:50.291Z,80.7
2019-02-11T17:48:50.387Z,81.0
2019-02-11T17:50:50.390Z,82.7
2019-02-11T17:52:50.396Z,83.9
2019-02-11T17:54:50.324Z,83.8
2019-02-11T17:56:50.462Z,84.2
2019-02-11T17:58:50.536Z,85.0
2019-02-11T18:00:50.542Z,84.5
2019-02-11T18:02:50.569Z,84.8
2019-02-11T18:04:49.937Z,85.4
2019-02-11T18:06:50.189Z,84.9
2019-02-11T18:08:50.173Z,82.5
2019-02-11T18:10:50.198Z,82.6
2019-02-11T18:12:50.199Z,82.8
2019-02-11T18:14:50.151Z,82.7
2019-02-11T18:16:50.349Z,82.7
2019-02-11T18:18:50.382Z,82.9
2019-02-11T18:20:50.410Z,83.0
2019-02-11T18:22:50.456Z,83.4
2019-02-11T18:24:50.428Z,83.8
2019-02-11T18:26:50.668Z,84.3
2019-02-11T18:28:50.623Z,84.1
2019-02-11T18:30:50.623Z,84.4
2019-02-11T18:32:50.593Z,84.6
2019-02-11T18:34:49.993Z,85.7
2019-02-11T18:36:50.040Z,85.6
2019-02-11T18:38:50.051Z,86.3
2019-02-11T18:40:49.988Z,86.7
2019-02-11T18:42:50.072Z,87.1
2019-02-11T18:44:50.060Z,87.2
2019-02-11T18:46:50.242Z,87.6
2019-02-11T18:48:50.237Z,88.3
2019-02-11T18:50:50.210Z,88.1
2019-02-11T18:52:50.184Z,88.1
2019-02-11T18:54:50.228Z,88.4
2019-02-11T18:56:50.292Z,89.0
2019-02-11T18:58:50.313Z,89.2
2019-02-11T19:00:50.334Z,89.2
2019-02-11T19:02:50.408Z,89.3
2019-02-11T19:04:50.766Z,89.4
2019-02-11T19:06:49.896Z,89.5
2019-02-11T19:08:50.046Z,89.4
2019-02-11T19:10:50.037Z,89.4
2019-02-11T19:12:50.081Z,89.8
2019-02-11T19:14:50.106Z,89.5
2019-02-11T19:16:50.167Z,89.4
2019-02-11T19:18:50.139Z,89.4
2019-02-11T19:20:50.148Z,89.0
2019-02-11T19:22:50.163Z,88.9
2019-02-11T19:24:50.194Z,88.6
2019-02-11T19:26:50.283Z,88.6
2019-02-11T19:28:50.274Z,88.8
2019-02-11T19:30:50.307Z,89.6
2019-02-11T19:32:50.420Z,89.6
2019-02-11T19:34:49.910Z,89.9
2019-02-11T19:36:50.201Z,90.1
2019-02-11T19:38:50.203Z,89.7
2019-02-11T19:40:50.214Z,90.1
2019-02-11T19:42:50.242Z,89.7
2019-02-11T19:44:50.263Z,89.8
2019-02-11T19:46:50.402Z,90.4
2019-02-11T19:48:50.403Z,90.4
2019-02-11T19:50:50.483Z,90.7
2019-02-11T19:52:50.468Z,90.5
2019-02-11T19:54:50.591Z,90.6
2019-02-11T19:56:49.800Z,90.5
2019-02-11T19:58:49.847Z,91.0
2019-02-11T20:00:49.885Z,90.6
2019-02-11T20:02:50.053Z,90.6
2019-02-11T20:04:50.455Z,90.2
2019-02-11T20:06:50.754Z,89.3
2019-02-11T20:08:50.771Z,89.5
2019-02-11T20:10:49.798Z,89.8
2019-02-11T20:12:49.997Z,89.6
2019-02-11T20:14:49.975Z,89.1
2019-02-11T20:16:50.162Z,89.5
2019-02-11T20:18:50.169Z,88.1
2019-02-11T20:20:50.210Z,88.3
2019-02-11T20:22:50.271Z,88.0
2019-02-11T20:24:50.262Z,87.8
2019-02-11T20:26:50.348Z,88.1
2019-02-11T20:28:50.385Z,88.3
2019-02-11T20:30:50.409Z,88.3
2019-02-11T20:32:50.455Z,88.1
2019-02-11T20:34:49.841Z,87.5
2019-02-11T20:36:50.101Z,87.9
2019-02-11T20:38:50.145Z,87.9
2019-02-11T20:40:50.109Z,87.4
2019-02-11T20:42:50.119Z,88.1
2019-02-11T20:44:50.184Z,87.8
2019-02-11T20:46:50.382Z,88.1
2019-02-11T20:48:50.305Z,87.6
2019-02-11T20:50:50.269Z,86.9
2019-02-11T20:52:50.299Z,86.6
2019-02-11T20:54:50.262Z,87.3
2019-02-11T20:56:50.374Z,87.1
2019-02-11T20:58:50.394Z,87.2
2019-02-11T21:00:50.552Z,86.9
2019-02-11T21:02:50.581Z,87.0
2019-02-11T21:04:49.919Z,87.1
2019-02-11T21:06:50.038Z,86.8
2019-02-11T21:08:50.034Z,86.5
2019-02-11T21:10:50.126Z,86.8
2019-02-11T21:12:50.115Z,86.2
2019-02-11T21:14:50.126Z,86.5
2019-02-11T21:16:50.221Z,87.0
2019-02-11T21:18:50.274Z,87.3
2019-02-11T21:20:50.308Z,87.3
2019-02-11T21:22:50.266Z,87.2
2019-02-11T21:24:50.291Z,87.2
2019-02-11T21:26:50.404Z,87.3
2019-02-11T21:28:50.351Z,87.2
2019-02-11T21:30:50.272Z,87.9
2019-02-11T21:32:50.312Z,86.9
2019-02-11T21:34:49.843Z,87.3
2019-02-11T21:36:50.044Z,87.4
2019-02-11T21:38:50.122Z,87.4
2019-02-11T21:40:50.053Z,87.5
2019-02-11T21:42:50.109Z,87.3
2019-02-11T21:44:50.164Z,87.6
2019-02-11T21:46:50.265Z,87.8
2019-02-11T21:48:50.217Z,87.8
2019-02-11T21:50:50.221Z,87.7
2019-02-11T21:52:50.244Z,87.9
2019-02-11T21:54:50.294Z,88.0
2019-02-11T21:56:50.330Z,88.0
2019-02-11T21:58:50.428Z,88.2
2019-02-11T22:00:50.561Z,88.6
2019-02-11T22:02:50.528Z,88.7
2019-02-11T22:04:50.027Z,88.9
2019-02-11T22:06:50.158Z,88.9
2019-02-11T22:08:50.290Z,89.0
2019-02-11T22:10:50.257Z,89.0
2019-02-11T22:12:50.202Z,89.5
2019-02-11T22:14:50.241Z,90.1
2019-02-11T22:16:50.301Z,90.1
2019-02-11T22:18:50.316Z,90.6
2019-02-11T22:20:50.273Z,91.1
2019-02-11T22:22:50.435Z,91.5
2019-02-11T22:24:50.488Z,91.3
2019-02-11T22:26:50.732Z,91.0
2019-02-11T22:28:50.700Z,90.7
2019-02-11T22:30:50.779Z,90.5
2019-02-11T22:32:49.783Z,90.5
2019-02-11T22:34:50.205Z,90.4
2019-02-11T22:36:50.262Z,90.7
2019-02-11T22:38:50.209Z,90.6
2019-02-11T22:40:50.294Z,90.4
2019-02-11T22:42:50.413Z,90.6
2019-02-11T22:44:50.367Z,90.2
2019-02-11T22:46:50.534Z,90.2
2019-02-11T22:48:50.532Z,90.2
2019-02-11T22:50:50.552Z,90.4
2019-02-11T22:52:50.645Z,90.7
2019-02-11T22:54:50.562Z,90.8
2019-02-11T22:56:50.651Z,90.6
2019-02-11T22:58:50.733Z,90.4
2019-02-11T23:00:49.862Z,90.0
2019-02-11T23:02:49.978Z,90.0
2019-02-11T23:04:50.352Z,90.0
2019-02-11T23:06:50.535Z,90.0
2019-02-11T23:08:50.489Z,89.9
2019-02-11T23:10:50.515Z,90.1
2019-02-11T23:12:50.505Z,90.6
2019-02-11T23:14:50.515Z,90.5
2019-02-11T23:16:50.670Z,90.4
2019-02-11T23:18:49.796Z,90.2
2019-02-11T23:20:52.738Z,90.0
2019-02-11T23:22:50.755Z,89.7
2019-02-11T23:24:49.889Z,89.5
2019-02-11T23:26:50.108Z,88.5
2019-02-11T23:28:50.150Z,88.7
2019-02-11T23:30:50.162Z,88.4
2019-02-11T23:32:50.224Z,88.3
2019-02-11T23:34:50.609Z,88.3
2019-02-11T23:36:49.795Z,88.2
2019-02-11T23:38:49.800Z,87.8
2019-02-11T23:40:49.846Z,87.7
2019-02-11T23:42:49.983Z,87.6
2019-02-11T23:44:50.074Z,87.3
2019-02-11T23:46:50.208Z,87.3
2019-02-11T23:48:50.225Z,86.9
2019-02-11T23:50:50.259Z,87.0
2019-02-11T23:52:50.327Z,87.2
2019-02-11T23:54:50.305Z,87.1
2019-02-11T23:56:50.452Z,87.4
2019-02-11T23:58:50.530Z,86.8
